createdAt,value
2018-09-05T00:02:17.981Z,7.50
2018-09-05T00:04:46.174Z,7.87
2018-09-05T00:07:14.438Z,7.20
2018-09-05T00:09:42.679Z,7.40
2018-09-05T00:12:10.899Z,7.60
2018-09-05T00:14:39.327Z,7.50
2018-09-05T00:17:07.526Z,7.23
2018-09-05T00:19:35.749Z,7.47
2018-09-05T00:22:04.054Z,8.33
2018-09-05T00:24:32.241Z,7.77
2018-09-05T00:27:00.457Z,8.10
2018-09-05T00:29:28.732Z,8.03
2018-09-05T00:31:56.959Z,7.53
2018-09-05T00:34:25.251Z,6.97
2018-09-05T00:36:53.527Z,7.57
2018-09-05T00:39:21.757Z,7.60
2018-09-05T00:41:50.069Z,7.90
2018-09-05T00:44:18.298Z,7.87
2018-09-05T00:46:46.557Z,8.20
2018-09-05T00:49:14.730Z,7.73
2018-09-05T00:51:42.980Z,7.47
2018-09-05T00:54:11.186Z,7.13
2018-09-05T00:56:39.464Z,7.27
2018-09-05T00:59:07.714Z,7.70
2018-09-05T01:01:35.997Z,8.60
2018-09-05T01:04:04.223Z,8.33
2018-09-05T01:06:32.435Z,8.10
2018-09-05T01:09:00.630Z,8.73
2018-09-05T01:11:29.009Z,8.90
2018-09-05T01:13:57.201Z,8.47
2018-09-05T01:16:25.460Z,8.80
2018-09-05T01:18:53.711Z,9.07
2018-09-05T01:21:21.907Z,8.07
2018-09-05T01:23:50.165Z,9.43
2018-09-05T01:26:18.533Z,8.57
2018-09-05T01:28:46.813Z,8.77
2018-09-05T01:31:15.081Z,9.87
2018-09-05T01:33:43.305Z,8.90
2018-09-05T01:36:18.983Z,7.83
2018-09-05T01:38:47.233Z,9.47
2018-09-05T01:41:15.970Z,8.97
2018-09-05T01:43:44.567Z,9.70
2018-09-05T01:46:12.944Z,9.33
2018-09-05T01:48:43.195Z,10.47
2018-09-05T01:51:11.457Z,9.93
2018-09-05T01:53:39.763Z,9.70
2018-09-05T01:56:08.101Z,9.67
2018-09-05T01:58:36.355Z,10.03
2018-09-05T02:01:04.555Z,9.53
2018-09-05T02:03:32.879Z,9.50
2018-09-05T02:06:01.050Z,9.63
2018-09-05T02:08:29.600Z,10.47
2018-09-05T02:10:57.864Z,10.10
2018-09-05T02:13:26.190Z,10.20
2018-09-05T02:15:54.456Z,11.07
2018-09-05T02:18:22.703Z,10.80
2018-09-05T02:20:50.970Z,11.03
2018-09-05T02:23:19.377Z,10.60
2018-09-05T02:25:47.629Z,11.83
2018-09-05T02:28:15.803Z,12.57
2018-09-05T02:30:44.007Z,13.43
2018-09-05T02:33:12.298Z,12.17
2018-09-05T02:35:40.784Z,12.27
2018-09-05T02:38:09.043Z,11.60
2018-09-05T02:40:37.384Z,12.37
2018-09-05T02:43:05.634Z,12.23
2018-09-05T02:45:33.855Z,11.87
2018-09-05T02:48:02.121Z,11.97
2018-09-05T02:50:30.382Z,12.20
2018-09-05T02:52:58.589Z,12.33
2018-09-05T02:55:44.425Z,12.00
2018-09-05T02:58:12.687Z,11.80
2018-09-05T03:00:40.915Z,12.10
2018-09-05T03:03:09.222Z,12.73
2018-09-05T03:05:37.451Z,12.73
2018-09-05T03:08:05.707Z,13.00
2018-09-05T03:10:34.045Z,13.37
2018-09-05T03:13:02.188Z,13.13
2018-09-05T03:15:30.647Z,13.40
2018-09-05T03:17:58.828Z,13.77
2018-09-05T03:20:27.071Z,13.57
2018-09-05T03:22:55.300Z,13.70
2018-09-05T03:25:23.517Z,14.73
2018-09-05T03:27:51.862Z,12.87
2018-09-05T03:30:20.167Z,14.47
2018-09-05T03:32:48.655Z,13.97
2018-09-05T03:35:16.899Z,14.27
2018-09-05T03:37:45.093Z,14.43
2018-09-05T03:40:13.296Z,13.93
2018-09-05T03:42:41.532Z,15.47
2018-09-05T03:45:09.739Z,15.43
2018-09-05T03:47:38.129Z,15.97
2018-09-05T03:50:06.907Z,14.80
2018-09-05T03:52:35.139Z,14.07
2018-09-05T03:55:03.376Z,14.77
2018-09-05T03:57:31.909Z,15.93
2018-09-05T04:00:00.171Z,15.97
2018-09-05T04:02:28.606Z,15.80
2018-09-05T04:04:58.225Z,15.40
2018-09-05T04:07:26.741Z,15.73
2018-09-05T04:09:55.113Z,14.93
2018-09-05T04:12:23.296Z,15.73
2018-09-05T04:14:51.814Z,17.23
2018-09-05T04:17:20.197Z,17.20
2018-09-05T04:19:48.912Z,16.97
2018-09-05T04:22:17.271Z,17.00
2018-09-05T04:24:45.455Z,17.70
2018-09-05T04:27:13.932Z,18.27
2018-09-05T04:29:42.287Z,18.00
2018-09-05T04:32:10.705Z,17.60
2018-09-05T04:34:38.930Z,18.83
2018-09-05T04:37:07.206Z,18.53
2018-09-05T04:39:35.418Z,19.43
2018-09-05T04:42:03.872Z,21.13
2018-09-05T04:44:32.159Z,21.50
2018-09-05T04:47:00.430Z,21.67
2018-09-05T04:49:28.809Z,23.87
2018-09-05T04:51:57.085Z,24.40
2018-09-05T04:54:25.437Z,23.10
2018-09-05T04:56:53.745Z,23.23
2018-09-05T04:59:21.920Z,22.63
2018-09-05T05:01:50.214Z,25.30
2018-09-05T05:04:18.489Z,24.10
2018-09-05T05:06:46.743Z,24.23
2018-09-05T05:09:14.977Z,21.67
2018-09-05T05:11:43.356Z,29.20
2018-09-05T05:14:12.119Z,23.70
2018-09-05T05:16:40.471Z,21.50
2018-09-05T05:19:08.724Z,21.63
2018-09-05T05:21:37.011Z,21.43
2018-09-05T05:24:05.352Z,20.40
2018-09-05T05:26:33.696Z,19.80
2018-09-05T05:29:02.531Z,21.93
2018-09-05T05:31:30.743Z,22.03
2018-09-05T05:33:58.965Z,19.73
2018-09-05T05:36:27.327Z,18.37
2018-09-05T05:38:55.770Z,18.07
2018-09-05T05:41:24.027Z,21.67
2018-09-05T05:43:52.353Z,19.90
2018-09-05T05:46:20.714Z,21.13
2018-09-05T05:48:49.105Z,19.97
2018-09-05T05:51:17.264Z,20.40
2018-09-05T05:53:45.519Z,19.23
2018-09-05T05:56:13.843Z,19.80
2018-09-05T05:58:42.302Z,18.63
2018-09-05T06:01:10.734Z,17.10
2018-09-05T06:03:38.941Z,18.23
2018-09-05T06:06:07.288Z,17.47
2018-09-05T06:08:35.841Z,17.43
2018-09-05T06:11:40.298Z,19.20
2018-09-05T06:14:08.915Z,20.47
2018-09-05T06:16:37.284Z,21.63
2018-09-05T06:19:05.820Z,18.70
2018-09-05T06:21:34.449Z,17.90
2018-09-05T06:24:03.495Z,17.53
2018-09-05T06:26:32.032Z,15.80
2018-09-05T06:29:00.796Z,14.30
2018-09-05T06:31:29.133Z,13.47
2018-09-05T06:33:57.790Z,12.60
2018-09-05T06:36:26.266Z,12.23
2018-09-05T06:38:54.819Z,13.13
2018-09-05T06:41:23.255Z,12.30
2018-09-05T06:43:51.756Z,11.90
2018-09-05T06:46:20.370Z,11.67
2018-09-05T06:48:49.134Z,11.93
2018-09-05T06:51:17.711Z,13.57
2018-09-05T06:53:46.431Z,13.03
2018-09-05T06:56:15.157Z,12.47
2018-09-05T06:58:43.640Z,14.53
2018-09-05T07:01:12.377Z,13.03
2018-09-05T07:03:41.513Z,13.30
2018-09-05T07:06:09.931Z,12.93
2018-09-05T07:08:38.490Z,13.97
2018-09-05T07:11:07.039Z,13.70
2018-09-05T07:13:35.558Z,13.63
2018-09-05T07:16:04.171Z,13.87
2018-09-05T07:18:32.713Z,14.67
2018-09-05T07:21:05.685Z,14.30
2018-09-05T07:23:29.785Z,14.47
2018-09-05T07:25:58.299Z,14.20
2018-09-05T07:28:26.801Z,13.63
2018-09-05T07:30:55.426Z,14.00
2018-09-05T07:33:23.783Z,13.83
2018-09-05T07:35:52.334Z,13.53
2018-09-05T07:38:21.030Z,13.03
2018-09-05T07:40:49.859Z,12.23
2018-09-05T07:43:18.436Z,14.07
2018-09-05T07:45:47.483Z,12.90
2018-09-05T07:48:16.040Z,13.33
2018-09-05T07:50:44.637Z,12.67
2018-09-05T07:53:13.102Z,13.17
2018-09-05T07:55:41.678Z,12.47
2018-09-05T07:58:10.255Z,11.80
2018-09-05T08:00:38.723Z,11.97
2018-09-05T08:03:07.227Z,9.57
2018-09-05T08:05:35.674Z,10.07
2018-09-05T08:08:04.204Z,8.30
2018-09-05T08:10:32.719Z,8.70
2018-09-05T08:13:01.312Z,8.47
2018-09-05T08:15:29.940Z,9.60
2018-09-05T08:17:58.397Z,10.97
2018-09-05T08:20:26.903Z,9.23
2018-09-05T08:22:55.498Z,11.80
2018-09-05T08:25:24.144Z,8.87
2018-09-05T08:27:52.703Z,10.73
2018-09-05T08:30:21.534Z,8.00
2018-09-05T08:32:50.096Z,15.20
2018-09-05T08:35:18.972Z,8.00
2018-09-05T08:37:47.486Z,8.40
2018-09-05T08:40:15.850Z,7.63
2018-09-05T08:42:44.442Z,7.63
2018-09-05T08:45:19.806Z,8.00
2018-09-05T08:47:48.327Z,11.17
2018-09-05T08:50:16.805Z,9.60
2018-09-05T08:52:45.732Z,8.20
2018-09-05T08:55:14.826Z,9.00
2018-09-05T08:57:43.232Z,9.30
2018-09-05T09:00:11.948Z,7.83
2018-09-05T09:02:40.501Z,7.37
2018-09-05T09:05:09.751Z,7.33
2018-09-05T09:07:38.233Z,6.77
2018-09-05T09:10:08.822Z,5.70
2018-09-05T09:12:37.467Z,6.63
2018-09-05T09:15:07.012Z,6.97
2018-09-05T09:17:35.471Z,6.17
2018-09-05T09:20:04.265Z,6.43
2018-09-05T09:22:32.746Z,7.63
2018-09-05T09:25:01.481Z,7.17
2018-09-05T09:27:31.610Z,7.03
2018-09-05T09:30:00.386Z,6.70
2018-09-05T09:32:29.043Z,7.47
2018-09-05T09:34:57.684Z,6.63
2018-09-05T09:37:26.366Z,6.10
2018-09-05T09:39:54.887Z,6.30
2018-09-05T09:42:23.695Z,6.50
2018-09-05T09:44:52.336Z,6.47
2018-09-05T09:47:20.930Z,5.50
2018-09-05T09:49:49.508Z,5.80
2018-09-05T09:52:22.456Z,6.00
2018-09-05T09:54:52.488Z,7.20
2018-09-05T09:57:21.624Z,5.93
2018-09-05T09:59:50.873Z,6.23
2018-09-05T10:02:24.535Z,5.47
2018-09-05T10:04:58.423Z,6.20
2018-09-05T10:07:32.133Z,5.97
2018-09-05T10:11:03.548Z,6.43
2018-09-05T10:13:37.462Z,6.00
2018-09-05T10:17:09.905Z,5.30
2018-09-05T10:19:38.625Z,5.43
2018-09-05T10:22:07.276Z,5.87
2018-09-05T10:24:35.913Z,5.53
2018-09-05T10:27:04.609Z,5.03
2018-09-05T10:29:33.517Z,5.47
2018-09-05T10:32:02.781Z,5.10
2018-09-05T10:34:31.467Z,4.87
2018-09-05T10:36:59.972Z,5.40
2018-09-05T10:39:28.475Z,5.30
2018-09-05T10:41:56.900Z,5.87
2018-09-05T10:44:25.435Z,5.03
2018-09-05T10:46:53.880Z,5.83
2018-09-05T10:49:22.690Z,5.37
2018-09-05T10:51:54.776Z,5.33
2018-09-05T10:54:24.369Z,5.50
2018-09-05T10:56:52.964Z,5.00
2018-09-05T10:59:21.610Z,4.97
2018-09-05T11:01:50.272Z,4.70
2018-09-05T11:04:18.829Z,6.17
2018-09-05T11:06:47.491Z,5.43
2018-09-05T11:09:16.018Z,6.07
2018-09-05T11:11:44.501Z,6.00
2018-09-05T11:14:12.977Z,7.07
2018-09-05T11:16:41.589Z,4.53
2018-09-05T11:19:10.480Z,5.57
2018-09-05T11:21:39.301Z,4.80
2018-09-05T11:24:08.234Z,4.90
2018-09-05T11:26:37.128Z,4.67
2018-09-05T11:29:06.049Z,5.37
2018-09-05T11:31:34.726Z,4.30
2018-09-05T11:34:03.609Z,4.47
2018-09-05T11:36:32.329Z,4.10
2018-09-05T11:39:00.854Z,4.57
2018-09-05T11:41:29.544Z,5.03
2018-09-05T11:43:58.088Z,4.60
2018-09-05T11:46:26.625Z,3.97
2018-09-05T11:49:30.703Z,4.43
2018-09-05T12:16:22.691Z,3.40
2018-09-05T12:19:07.122Z,3.47
2018-09-05T12:21:50.008Z,4.40
2018-09-05T12:30:21.912Z,3.47
2018-09-05T12:33:04.119Z,3.70
2018-09-05T12:35:41.485Z,4.30
2018-09-05T12:38:28.377Z,3.60
2018-09-05T12:41:16.744Z,3.70
2018-09-05T13:29:09.136Z,3.63
2018-09-05T13:34:47.823Z,3.47
2018-09-05T13:37:25.508Z,4.00
2018-09-05T14:29:31.825Z,3.20
2018-09-05T14:32:20.404Z,3.57
2018-09-05T14:35:09.541Z,3.27
2018-09-05T14:37:54.137Z,3.53
2018-09-05T14:40:41.141Z,3.43
2018-09-05T14:46:27.868Z,3.90
2018-09-05T14:55:31.894Z,4.00
2018-09-05T14:58:19.141Z,3.73
2018-09-05T15:10:30.087Z,4.83
2018-09-05T15:13:06.233Z,4.60
2018-09-05T15:21:16.430Z,3.50
2018-09-05T15:23:47.347Z,3.67
2018-09-05T15:26:21.624Z,3.40
2018-09-05T15:28:51.969Z,3.60
2018-09-05T15:31:26.528Z,3.80
2018-09-05T15:36:31.314Z,3.63
2018-09-05T15:41:45.604Z,3.67
2018-09-05T15:44:16.078Z,3.67
2018-09-05T15:46:53.376Z,4.00
2018-09-05T15:49:35.233Z,3.87
2018-09-05T15:52:13.345Z,4.00
2018-09-05T15:54:45.048Z,3.83
2018-09-05T15:57:19.183Z,3.73
2018-09-05T15:59:50.081Z,3.30
2018-09-05T16:02:46.539Z,3.63
2018-09-05T16:05:15.493Z,3.80
2018-09-05T16:16:28.424Z,3.77
2018-09-05T16:24:51.383Z,3.93
2018-09-05T16:27:26.778Z,4.33
2018-09-05T16:29:58.670Z,3.90
2018-09-05T16:32:40.243Z,3.43
2018-09-05T16:35:19.156Z,3.63
2018-09-05T16:37:57.034Z,4.07
2018-09-05T16:40:28.056Z,3.60
2018-09-05T16:45:53.557Z,3.40
2018-09-05T16:48:50.371Z,2.83
2018-09-05T16:51:31.222Z,2.97
2018-09-05T16:54:20.499Z,3.40
2018-09-05T16:57:29.157Z,3.57
2018-09-05T17:00:09.627Z,3.43
2018-09-05T17:03:14.838Z,3.70
2018-09-05T17:05:53.542Z,4.07
2018-09-05T17:08:47.666Z,4.00
2018-09-05T17:38:03.858Z,4.50
2018-09-05T17:40:44.628Z,4.63
2018-09-05T17:43:24.562Z,4.93
2018-09-05T17:46:04.539Z,5.00
2018-09-05T17:48:51.660Z,4.70
2018-09-05T17:51:22.454Z,4.43
2018-09-05T17:53:51.527Z,4.53
2018-09-05T17:56:20.252Z,4.90
2018-09-05T17:58:55.530Z,4.20
2018-09-05T18:01:31.058Z,4.17
2018-09-05T18:04:13.058Z,4.40
2018-09-05T18:06:42.787Z,4.50
2018-09-05T18:09:12.359Z,5.40
2018-09-05T18:11:44.766Z,4.57
2018-09-05T18:14:24.970Z,4.50
2018-09-05T18:17:14.929Z,4.63
2018-09-05T18:19:57.835Z,4.20
2018-09-05T18:47:02.076Z,5.10
2018-09-05T19:07:23.490Z,4.60
2018-09-05T19:09:58.013Z,4.90
2018-09-05T19:12:31.654Z,3.97
2018-09-05T19:15:06.527Z,3.83
2018-09-05T19:17:39.947Z,4.20
2018-09-05T19:20:13.613Z,4.30
2018-09-05T19:22:41.763Z,4.30
2018-09-05T19:25:14.020Z,3.93
2018-09-05T19:27:51.541Z,4.43
2018-09-05T19:30:26.682Z,3.67
2018-09-05T19:32:59.837Z,3.87
2018-09-05T19:35:35.711Z,4.40
2018-09-05T19:38:09.371Z,4.13
2018-09-05T19:40:43.729Z,3.90
2018-09-05T19:43:17.859Z,3.67
2018-09-05T19:45:52.932Z,4.40
2018-09-05T19:48:28.825Z,4.70
2018-09-05T19:51:02.117Z,4.23
2018-09-05T19:53:31.817Z,4.33
2018-09-05T19:56:07.054Z,4.60
2018-09-05T19:58:41.185Z,4.90
2018-09-05T20:01:13.294Z,3.97
2018-09-05T20:03:52.630Z,4.00
2018-09-05T20:06:23.505Z,5.07
2018-09-05T20:08:57.494Z,4.40
2018-09-05T20:11:37.565Z,4.33
2018-09-05T20:14:13.896Z,4.47
2018-09-05T20:16:53.143Z,4.40
2018-09-05T20:19:52.038Z,4.67
2018-09-05T20:22:50.145Z,4.23
2018-09-05T20:25:41.087Z,4.00
2018-09-05T20:28:26.664Z,3.90
2018-09-05T20:31:15.771Z,4.73
2018-09-05T20:34:14.424Z,4.07
2018-09-05T20:36:53.550Z,4.23
2018-09-05T20:39:43.599Z,4.13
2018-09-05T20:42:24.091Z,4.03
2018-09-05T20:45:17.005Z,4.30
2018-09-05T21:16:55.621Z,4.60
2018-09-05T21:19:36.812Z,4.37
2018-09-05T21:22:05.927Z,4.20
2018-09-05T21:24:42.144Z,4.67
2018-09-05T21:27:10.855Z,4.70
2018-09-05T21:29:40.378Z,3.90
2018-09-05T21:32:11.562Z,5.23
2018-09-05T21:34:41.636Z,4.23
2018-09-05T22:04:27.575Z,4.07
2018-09-05T22:07:12.573Z,4.03
2018-09-05T22:10:02.686Z,4.43
2018-09-05T22:19:48.546Z,3.50
2018-09-05T22:28:28.242Z,3.87
2018-09-05T22:31:27.823Z,4.30
2018-09-05T22:34:22.664Z,4.40
2018-09-05T22:37:07.101Z,4.43
2018-09-05T22:39:46.374Z,4.57
2018-09-05T22:42:26.938Z,4.10
2018-09-05T22:45:12.966Z,4.23
2018-09-05T22:47:59.700Z,3.73
2018-09-05T22:51:04.989Z,3.97
2018-09-05T22:54:59.903Z,4.50
2018-09-05T23:00:54.264Z,4.03
2018-09-05T23:06:04.423Z,4.27
2018-09-05T23:08:50.875Z,4.10
2018-09-05T23:11:42.356Z,4.20
2018-09-05T23:14:34.672Z,4.43
2018-09-05T23:17:19.487Z,4.60
2018-09-05T23:20:23.634Z,4.83
2018-09-05T23:23:12.405Z,5.27
2018-09-05T23:26:10.749Z,6.30
2018-09-05T23:28:51.192Z,6.53
2018-09-05T23:31:31.935Z,4.50
2018-09-05T23:34:10.087Z,4.60
2018-09-05T23:36:56.032Z,4.63
2018-09-05T23:39:30.931Z,4.20
2018-09-05T23:42:10.867Z,4.90
2018-09-05T23:44:52.455Z,4.07
2018-09-05T23:47:29.581Z,4.37
2018-09-05T23:50:06.556Z,4.17
2018-09-05T23:52:41.563Z,4.83
2018-09-05T23:55:22.937Z,5.73
2018-09-05T23:58:03.032Z,4.43
